sensor_id;sensor_type;location;lat;lon;timestamp;P1;durP1;ratioP1;P2;durP2;ratioP2
12218;SDS011;6172;42.646;23.344;2022-10-17T00:00:50;11.37;;;7.73;;
12218;SDS011;6172;42.646;23.344;2022-10-17T00:03:19;12.27;;;7.50;;
12218;SDS011;6172;42.646;23.344;2022-10-17T00:05:46;11.50;;;8.27;;
12218;SDS011;6172;42.646;23.344;2022-10-17T00:08:14;12.53;;;7.77;;
12218;SDS011;6172;42.646;23.344;2022-10-17T00:10:42;11.60;;;7.17;;
12218;SDS011;6172;42.646;23.344;2022-10-17T00:13:10;11.17;;;8.10;;
12218;SDS011;6172;42.646;23.344;2022-10-17T00:15:37;12.97;;;7.97;;
12218;SDS011;6172;42.646;23.344;2022-10-17T00:18:08;9.80;;;7.73;;
12218;SDS011;6172;42.646;23.344;2022-10-17T00:20:36;14.03;;;7.80;;
12218;SDS011;6172;42.646;23.344;2022-10-17T00:23:03;11.27;;;7.40;;
12218;SDS011;6172;42.646;23.344;2022-10-17T00:25:30;9.33;;;7.20;;
12218;SDS011;6172;42.646;23.344;2022-10-17T00:27:57;12.43;;;7.47;;
12218;SDS011;6172;42.646;23.344;2022-10-17T00:30:24;9.80;;;7.50;;
12218;SDS011;6172;42.646;23.344;2022-10-17T00:32:51;10.07;;;7.60;;
12218;SDS011;6172;42.646;23.344;2022-10-17T00:35:18;11.27;;;7.00;;
12218;SDS011;6172;42.646;23.344;2022-10-17T00:37:46;9.87;;;7.67;;
12218;SDS011;6172;42.646;23.344;2022-10-17T00:40:13;11.10;;;8.13;;
12218;SDS011;6172;42.646;23.344;2022-10-17T00:42:39;8.27;;;7.30;;
12218;SDS011;6172;42.646;23.344;2022-10-17T00:45:09;11.73;;;7.57;;
12218;SDS011;6172;42.646;23.344;2022-10-17T00:47:39;10.63;;;7.47;;
12218;SDS011;6172;42.646;23.344;2022-10-17T00:50:08;9.33;;;6.40;;
12218;SDS011;6172;42.646;23.344;2022-10-17T00:52:37;11.63;;;6.47;;
12218;SDS011;6172;42.646;23.344;2022-10-17T00:55:07;10.40;;;6.67;;
12218;SDS011;6172;42.646;23.344;2022-10-17T00:57:39;7.93;;;5.80;;
12218;SDS011;6172;42.646;23.344;2022-10-17T01:00:07;7.37;;;5.03;;
12218;SDS011;6172;42.646;23.344;2022-10-17T01:02:36;8.90;;;5.90;;
12218;SDS011;6172;42.646;23.344;2022-10-17T01:05:03;7.57;;;5.10;;
12218;SDS011;6172;42.646;23.344;2022-10-17T01:07:31;6.83;;;4.83;;
12218;SDS011;6172;42.646;23.344;2022-10-17T01:09:58;5.33;;;4.00;;
12218;SDS011;6172;42.646;23.344;2022-10-17T01:12:28;5.23;;;4.43;;
12218;SDS011;6172;42.646;23.344;2022-10-17T01:15:04;5.37;;;4.43;;
12218;SDS011;6172;42.646;23.344;2022-10-17T01:17:39;4.73;;;3.60;;
12218;SDS011;6172;42.646;23.344;2022-10-17T01:23:30;5.17;;;3.60;;
12218;SDS011;6172;42.646;23.344;2022-10-17T01:26:23;5.73;;;3.67;;
12218;SDS011;6172;42.646;23.344;2022-10-17T01:29:02;6.90;;;4.70;;
12218;SDS011;6172;42.646;23.344;2022-10-17T01:31:46;4.80;;;4.10;;
12218;SDS011;6172;42.646;23.344;2022-10-17T01:34:18;5.80;;;3.57;;
12218;SDS011;6172;42.646;23.344;2022-10-17T01:36:48;6.03;;;3.87;;
12218;SDS011;6172;42.646;23.344;2022-10-17T01:39:20;7.27;;;3.90;;
12218;SDS011;6172;42.646;23.344;2022-10-17T01:41:54;5.67;;;4.40;;
12218;SDS011;6172;42.646;23.344;2022-10-17T01:44:26;6.30;;;4.10;;
12218;SDS011;6172;42.646;23.344;2022-10-17T01:47:01;4.83;;;4.33;;
12218;SDS011;6172;42.646;23.344;2022-10-17T01:49:30;5.73;;;4.50;;
12218;SDS011;6172;42.646;23.344;2022-10-17T01:52:00;5.83;;;4.30;;
12218;SDS011;6172;42.646;23.344;2022-10-17T01:54:31;4.30;;;3.80;;
12218;SDS011;6172;42.646;23.344;2022-10-17T01:57:04;7.50;;;4.63;;
12218;SDS011;6172;42.646;23.344;2022-10-17T01:59:37;6.13;;;4.67;;
12218;SDS011;6172;42.646;23.344;2022-10-17T02:02:08;6.43;;;5.00;;
12218;SDS011;6172;42.646;23.344;2022-10-17T02:04:37;5.90;;;4.63;;
12218;SDS011;6172;42.646;23.344;2022-10-17T02:07:07;6.43;;;4.83;;
12218;SDS011;6172;42.646;23.344;2022-10-17T02:09:35;11.07;;;7.83;;
12218;SDS011;6172;42.646;23.344;2022-10-17T02:14:57;12.33;;;7.33;;
12218;SDS011;6172;42.646;23.344;2022-10-17T02:17:49;8.10;;;6.47;;
12218;SDS011;6172;42.646;23.344;2022-10-17T02:20:23;7.83;;;5.93;;
12218;SDS011;6172;42.646;23.344;2022-10-17T02:22:56;9.77;;;7.30;;
12218;SDS011;6172;42.646;23.344;2022-10-17T02:25:28;9.03;;;6.37;;
12218;SDS011;6172;42.646;23.344;2022-10-17T02:28:05;9.13;;;6.57;;
12218;SDS011;6172;42.646;23.344;2022-10-17T02:30:42;7.90;;;6.07;;
12218;SDS011;6172;42.646;23.344;2022-10-17T02:33:14;9.63;;;6.50;;
12218;SDS011;6172;42.646;23.344;2022-10-17T02:35:44;9.43;;;5.70;;
12218;SDS011;6172;42.646;23.344;2022-10-17T02:38:14;8.23;;;5.70;;
12218;SDS011;6172;42.646;23.344;2022-10-17T02:40:43;8.27;;;6.20;;
12218;SDS011;6172;42.646;23.344;2022-10-17T02:43:12;7.07;;;5.30;;
12218;SDS011;6172;42.646;23.344;2022-10-17T02:45:40;7.10;;;5.20;;
12218;SDS011;6172;42.646;23.344;2022-10-17T02:48:08;7.93;;;4.97;;
12218;SDS011;6172;42.646;23.344;2022-10-17T02:50:43;6.93;;;5.70;;
12218;SDS011;6172;42.646;23.344;2022-10-17T02:53:24;7.43;;;4.80;;
12218;SDS011;6172;42.646;23.344;2022-10-17T02:55:56;6.07;;;4.50;;
12218;SDS011;6172;42.646;23.344;2022-10-17T02:58:29;7.93;;;4.57;;
12218;SDS011;6172;42.646;23.344;2022-10-17T03:00:58;6.33;;;5.03;;
12218;SDS011;6172;42.646;23.344;2022-10-17T03:03:27;7.77;;;4.90;;
12218;SDS011;6172;42.646;23.344;2022-10-17T03:05:57;8.40;;;4.90;;
12218;SDS011;6172;42.646;23.344;2022-10-17T03:08:24;8.43;;;4.63;;
12218;SDS011;6172;42.646;23.344;2022-10-17T03:10:50;7.70;;;5.23;;
12218;SDS011;6172;42.646;23.344;2022-10-17T03:13:17;9.17;;;5.60;;
12218;SDS011;6172;42.646;23.344;2022-10-17T03:15:44;9.93;;;5.23;;
12218;SDS011;6172;42.646;23.344;2022-10-17T03:18:12;7.43;;;5.60;;
12218;SDS011;6172;42.646;23.344;2022-10-17T03:20:38;9.53;;;5.50;;
12218;SDS011;6172;42.646;23.344;2022-10-17T03:23:06;10.63;;;5.70;;
12218;SDS011;6172;42.646;23.344;2022-10-17T03:25:33;8.93;;;5.67;;
12218;SDS011;6172;42.646;23.344;2022-10-17T03:28:00;7.63;;;5.17;;
12218;SDS011;6172;42.646;23.344;2022-10-17T03:30:29;12.13;;;6.37;;
12218;SDS011;6172;42.646;23.344;2022-10-17T03:32:57;8.93;;;5.97;;
12218;SDS011;6172;42.646;23.344;2022-10-17T03:35:24;8.03;;;5.17;;
12218;SDS011;6172;42.646;23.344;2022-10-17T03:37:51;11.30;;;5.43;;
12218;SDS011;6172;42.646;23.344;2022-10-17T03:40:19;10.47;;;5.43;;
12218;SDS011;6172;42.646;23.344;2022-10-17T03:42:46;8.77;;;5.37;;
12218;SDS011;6172;42.646;23.344;2022-10-17T03:45:12;10.10;;;5.80;;
12218;SDS011;6172;42.646;23.344;2022-10-17T03:47:39;9.47;;;6.63;;
12218;SDS011;6172;42.646;23.344;2022-10-17T03:50:06;10.70;;;6.30;;
12218;SDS011;6172;42.646;23.344;2022-10-17T03:52:34;16.50;;;7.27;;
12218;SDS011;6172;42.646;23.344;2022-10-17T03:55:00;12.57;;;7.57;;
12218;SDS011;6172;42.646;23.344;2022-10-17T03:57:29;15.20;;;7.73;;
12218;SDS011;6172;42.646;23.344;2022-10-17T03:59:56;17.57;;;9.47;;
12218;SDS011;6172;42.646;23.344;2022-10-17T04:02:23;22.53;;;9.20;;
12218;SDS011;6172;42.646;23.344;2022-10-17T04:04:50;19.37;;;9.70;;
12218;SDS011;6172;42.646;23.344;2022-10-17T04:07:17;15.77;;;9.17;;
12218;SDS011;6172;42.646;23.344;2022-10-17T04:09:44;19.07;;;10.27;;
12218;SDS011;6172;42.646;23.344;2022-10-17T04:12:11;20.13;;;10.70;;
12218;SDS011;6172;42.646;23.344;2022-10-17T04:14:39;20.67;;;10.67;;
12218;SDS011;6172;42.646;23.344;2022-10-17T04:17:07;19.53;;;10.80;;
12218;SDS011;6172;42.646;23.344;2022-10-17T04:19:34;24.90;;;11.80;;
12218;SDS011;6172;42.646;23.344;2022-10-17T04:22:01;21.73;;;10.87;;
12218;SDS011;6172;42.646;23.344;2022-10-17T04:24:28;19.80;;;9.87;;
12218;SDS011;6172;42.646;23.344;2022-10-17T04:26:55;21.17;;;10.60;;
12218;SDS011;6172;42.646;23.344;2022-10-17T04:29:22;20.90;;;9.43;;
12218;SDS011;6172;42.646;23.344;2022-10-17T04:31:51;18.57;;;9.17;;
12218;SDS011;6172;42.646;23.344;2022-10-17T04:34:20;19.83;;;9.67;;
12218;SDS011;6172;42.646;23.344;2022-10-17T04:36:47;22.97;;;9.73;;
12218;SDS011;6172;42.646;23.344;2022-10-17T04:39:13;19.73;;;10.27;;
12218;SDS011;6172;42.646;23.344;2022-10-17T04:41:40;21.37;;;10.67;;
12218;SDS011;6172;42.646;23.344;2022-10-17T04:44:09;19.63;;;10.70;;
12218;SDS011;6172;42.646;23.344;2022-10-17T04:46:35;23.23;;;11.37;;
12218;SDS011;6172;42.646;23.344;2022-10-17T04:49:04;28.43;;;11.33;;
12218;SDS011;6172;42.646;23.344;2022-10-17T04:51:30;29.30;;;11.30;;
12218;SDS011;6172;42.646;23.344;2022-10-17T04:53:57;25.60;;;11.40;;
12218;SDS011;6172;42.646;23.344;2022-10-17T04:56:24;27.37;;;11.00;;
12218;SDS011;6172;42.646;23.344;2022-10-17T04:58:51;23.43;;;10.93;;
12218;SDS011;6172;42.646;23.344;2022-10-17T05:01:19;26.13;;;11.13;;
12218;SDS011;6172;42.646;23.344;2022-10-17T05:03:46;22.53;;;11.10;;
12218;SDS011;6172;42.646;23.344;2022-10-17T05:06:15;28.73;;;11.57;;
12218;SDS011;6172;42.646;23.344;2022-10-17T05:08:43;21.87;;;11.10;;
12218;SDS011;6172;42.646;23.344;2022-10-17T05:11:14;23.33;;;9.97;;
12218;SDS011;6172;42.646;23.344;2022-10-17T05:13:43;20.37;;;10.57;;
12218;SDS011;6172;42.646;23.344;2022-10-17T05:16:10;23.57;;;11.07;;
12218;SDS011;6172;42.646;23.344;2022-10-17T05:18:36;22.80;;;9.50;;
12218;SDS011;6172;42.646;23.344;2022-10-17T05:21:03;23.33;;;9.60;;
12218;SDS011;6172;42.646;23.344;2022-10-17T05:23:32;20.03;;;9.23;;
12218;SDS011;6172;42.646;23.344;2022-10-17T05:25:58;18.27;;;9.67;;
12218;SDS011;6172;42.646;23.344;2022-10-17T05:28:25;22.97;;;9.13;;
12218;SDS011;6172;42.646;23.344;2022-10-17T05:30:52;16.43;;;9.07;;
12218;SDS011;6172;42.646;23.344;2022-10-17T05:33:19;19.23;;;9.17;;
12218;SDS011;6172;42.646;23.344;2022-10-17T05:35:47;16.60;;;8.63;;
12218;SDS011;6172;42.646;23.344;2022-10-17T05:38:14;18.43;;;9.17;;
12218;SDS011;6172;42.646;23.344;2022-10-17T05:40:42;17.47;;;9.00;;
12218;SDS011;6172;42.646;23.344;2022-10-17T05:43:09;17.90;;;9.03;;
12218;SDS011;6172;42.646;23.344;2022-10-17T05:45:36;19.10;;;9.63;;
12218;SDS011;6172;42.646;23.344;2022-10-17T05:48:02;19.07;;;9.30;;
12218;SDS011;6172;42.646;23.344;2022-10-17T05:50:33;11.30;;;7.57;;
12218;SDS011;6172;42.646;23.344;2022-10-17T05:53:00;12.87;;;7.80;;
12218;SDS011;6172;42.646;23.344;2022-10-17T05:55:27;16.57;;;8.70;;
12218;SDS011;6172;42.646;23.344;2022-10-17T05:57:55;18.37;;;8.53;;
12218;SDS011;6172;42.646;23.344;2022-10-17T06:00:22;14.03;;;7.50;;
12218;SDS011;6172;42.646;23.344;2022-10-17T06:02:49;11.23;;;6.57;;
12218;SDS011;6172;42.646;23.344;2022-10-17T06:05:16;13.27;;;6.17;;
12218;SDS011;6172;42.646;23.344;2022-10-17T06:07:43;13.10;;;6.07;;
12218;SDS011;6172;42.646;23.344;2022-10-17T06:10:10;10.37;;;4.90;;
12218;SDS011;6172;42.646;23.344;2022-10-17T06:12:40;9.93;;;5.23;;
12218;SDS011;6172;42.646;23.344;2022-10-17T06:15:09;7.80;;;5.20;;
12218;SDS011;6172;42.646;23.344;2022-10-17T06:17:36;8.87;;;4.47;;
12218;SDS011;6172;42.646;23.344;2022-10-17T06:20:03;9.53;;;4.80;;
12218;SDS011;6172;42.646;23.344;2022-10-17T06:22:31;11.87;;;5.33;;
12218;SDS011;6172;42.646;23.344;2022-10-17T06:24:58;6.60;;;4.30;;
12218;SDS011;6172;42.646;23.344;2022-10-17T06:27:24;6.03;;;4.23;;
12218;SDS011;6172;42.646;23.344;2022-10-17T06:29:51;6.40;;;4.23;;
12218;SDS011;6172;42.646;23.344;2022-10-17T06:32:19;8.83;;;5.20;;
12218;SDS011;6172;42.646;23.344;2022-10-17T06:34:46;10.50;;;5.23;;
12218;SDS011;6172;42.646;23.344;2022-10-17T06:37:13;7.10;;;5.20;;
12218;SDS011;6172;42.646;23.344;2022-10-17T06:39:40;7.30;;;5.10;;
12218;SDS011;6172;42.646;23.344;2022-10-17T06:42:06;7.33;;;5.23;;
12218;SDS011;6172;42.646;23.344;2022-10-17T06:44:33;8.20;;;5.90;;
12218;SDS011;6172;42.646;23.344;2022-10-17T06:47:00;11.10;;;7.03;;
12218;SDS011;6172;42.646;23.344;2022-10-17T06:49:29;12.00;;;6.33;;
12218;SDS011;6172;42.646;23.344;2022-10-17T06:51:57;11.00;;;6.73;;
12218;SDS011;6172;42.646;23.344;2022-10-17T06:54:24;12.13;;;7.17;;
12218;SDS011;6172;42.646;23.344;2022-10-17T06:56:52;12.63;;;7.20;;
12218;SDS011;6172;42.646;23.344;2022-10-17T06:59:20;13.77;;;7.27;;
12218;SDS011;6172;42.646;23.344;2022-10-17T07:01:47;12.37;;;7.10;;
12218;SDS011;6172;42.646;23.344;2022-10-17T07:04:14;10.77;;;6.77;;
12218;SDS011;6172;42.646;23.344;2022-10-17T07:06:42;8.17;;;5.57;;
12218;SDS011;6172;42.646;23.344;2022-10-17T07:09:09;8.67;;;6.23;;
12218;SDS011;6172;42.646;23.344;2022-10-17T07:11:36;8.83;;;5.80;;
12218;SDS011;6172;42.646;23.344;2022-10-17T07:14:04;6.67;;;5.93;;
12218;SDS011;6172;42.646;23.344;2022-10-17T07:16:31;7.27;;;6.10;;
12218;SDS011;6172;42.646;23.344;2022-10-17T07:18:58;8.77;;;6.60;;
12218;SDS011;6172;42.646;23.344;2022-10-17T07:21:25;8.53;;;6.40;;
12218;SDS011;6172;42.646;23.344;2022-10-17T07:23:53;10.70;;;5.90;;
12218;SDS011;6172;42.646;23.344;2022-10-17T07:26:20;9.17;;;6.90;;
12218;SDS011;6172;42.646;23.344;2022-10-17T07:28:50;9.50;;;6.13;;
12218;SDS011;6172;42.646;23.344;2022-10-17T07:31:18;12.97;;;7.47;;
12218;SDS011;6172;42.646;23.344;2022-10-17T07:33:46;10.10;;;6.43;;
12218;SDS011;6172;42.646;23.344;2022-10-17T07:36:14;12.17;;;7.60;;
12218;SDS011;6172;42.646;23.344;2022-10-17T07:38:41;11.57;;;6.67;;
12218;SDS011;6172;42.646;23.344;2022-10-17T07:41:10;9.90;;;7.20;;
12218;SDS011;6172;42.646;23.344;2022-10-17T07:43:38;10.77;;;8.07;;
12218;SDS011;6172;42.646;23.344;2022-10-17T07:46:08;11.53;;;8.23;;
12218;SDS011;6172;42.646;23.344;2022-10-17T07:48:36;11.30;;;8.07;;
12218;SDS011;6172;42.646;23.344;2022-10-17T07:51:04;13.63;;;8.30;;
12218;SDS011;6172;42.646;23.344;2022-10-17T07:53:33;14.10;;;8.10;;
12218;SDS011;6172;42.646;23.344;2022-10-17T07:56:05;12.93;;;8.43;;
12218;SDS011;6172;42.646;23.344;2022-10-17T07:58:33;15.87;;;9.73;;
12218;SDS011;6172;42.646;23.344;2022-10-17T08:01:01;19.00;;;9.87;;
12218;SDS011;6172;42.646;23.344;2022-10-17T08:03:28;14.23;;;9.33;;
12218;SDS011;6172;42.646;23.344;2022-10-17T08:05:58;11.10;;;8.67;;
12218;SDS011;6172;42.646;23.344;2022-10-17T08:08:26;11.70;;;8.80;;
12218;SDS011;6172;42.646;23.344;2022-10-17T08:10:53;14.37;;;9.73;;
12218;SDS011;6172;42.646;23.344;2022-10-17T08:13:21;14.00;;;9.57;;
12218;SDS011;6172;42.646;23.344;2022-10-17T08:15:49;15.47;;;9.87;;
12218;SDS011;6172;42.646;23.344;2022-10-17T08:18:16;16.30;;;10.87;;
12218;SDS011;6172;42.646;23.344;2022-10-17T08:20:43;13.47;;;9.57;;
12218;SDS011;6172;42.646;23.344;2022-10-17T08:23:10;17.97;;;9.77;;
12218;SDS011;6172;42.646;23.344;2022-10-17T08:25:37;16.90;;;9.30;;
12218;SDS011;6172;42.646;23.344;2022-10-17T08:28:04;16.00;;;10.03;;
12218;SDS011;6172;42.646;23.344;2022-10-17T08:30:31;15.50;;;10.83;;
12218;SDS011;6172;42.646;23.344;2022-10-17T08:32:59;13.67;;;9.13;;
12218;SDS011;6172;42.646;23.344;2022-10-17T08:35:26;15.40;;;10.20;;
12218;SDS011;6172;42.646;23.344;2022-10-17T08:37:53;13.53;;;10.23;;
12218;SDS011;6172;42.646;23.344;2022-10-17T08:40:21;16.63;;;9.47;;
12218;SDS011;6172;42.646;23.344;2022-10-17T08:45:51;12.68;;;8.73;;
12218;SDS011;6172;42.646;23.344;2022-10-17T08:48:22;13.70;;;9.45;;
12218;SDS011;6172;42.646;23.344;2022-10-17T08:50:51;15.07;;;9.15;;
12218;SDS011;6172;42.646;23.344;2022-10-17T08:53:22;14.65;;;7.97;;
12218;SDS011;6172;42.646;23.344;2022-10-17T08:55:55;14.15;;;8.20;;
12218;SDS011;6172;42.646;23.344;2022-10-17T08:58:27;14.30;;;9.45;;
12218;SDS011;6172;42.646;23.344;2022-10-17T09:01:00;11.48;;;8.85;;
12218;SDS011;6172;42.646;23.344;2022-10-17T09:06:20;14.65;;;9.57;;
12218;SDS011;6172;42.646;23.344;2022-10-17T09:08:58;15.18;;;9.77;;
12218;SDS011;6172;42.646;23.344;2022-10-17T09:11:38;12.15;;;8.75;;
12218;SDS011;6172;42.646;23.344;2022-10-17T09:14:29;13.25;;;8.00;;
12218;SDS011;6172;42.646;23.344;2022-10-17T09:17:11;15.03;;;8.93;;
12218;SDS011;6172;42.646;23.344;2022-10-17T09:19:52;12.85;;;7.78;;
12218;SDS011;6172;42.646;23.344;2022-10-17T09:22:25;11.30;;;7.95;;
12218;SDS011;6172;42.646;23.344;2022-10-17T09:24:56;9.90;;;6.40;;
12218;SDS011;6172;42.646;23.344;2022-10-17T09:27:31;9.43;;;5.50;;
12218;SDS011;6172;42.646;23.344;2022-10-17T09:30:15;9.13;;;5.55;;
12218;SDS011;6172;42.646;23.344;2022-10-17T09:32:48;10.00;;;6.80;;
12218;SDS011;6172;42.646;23.344;2022-10-17T09:35:17;10.75;;;5.55;;
12218;SDS011;6172;42.646;23.344;2022-10-17T09:37:45;9.20;;;5.50;;
12218;SDS011;6172;42.646;23.344;2022-10-17T09:40:15;5.38;;;4.30;;
12218;SDS011;6172;42.646;23.344;2022-10-17T09:42:46;8.47;;;5.00;;
12218;SDS011;6172;42.646;23.344;2022-10-17T09:45:16;8.13;;;5.27;;
12218;SDS011;6172;42.646;23.344;2022-10-17T09:47:49;8.83;;;5.20;;
12218;SDS011;6172;42.646;23.344;2022-10-17T09:50:24;13.15;;;4.85;;
12218;SDS011;6172;42.646;23.344;2022-10-17T09:52:53;7.90;;;4.00;;
12218;SDS011;6172;42.646;23.344;2022-10-17T09:55:25;8.15;;;4.18;;
12218;SDS011;6172;42.646;23.344;2022-10-17T09:58:00;7.00;;;3.90;;
12218;SDS011;6172;42.646;23.344;2022-10-17T10:00:32;6.07;;;3.28;;
12218;SDS011;6172;42.646;23.344;2022-10-17T10:03:16;9.07;;;3.60;;
12218;SDS011;6172;42.646;23.344;2022-10-17T10:05:59;3.33;;;2.53;;
12218;SDS011;6172;42.646;23.344;2022-10-17T10:08:28;6.38;;;2.90;;
12218;SDS011;6172;42.646;23.344;2022-10-17T10:10:57;4.70;;;3.15;;
12218;SDS011;6172;42.646;23.344;2022-10-17T10:13:27;5.18;;;3.22;;
12218;SDS011;6172;42.646;23.344;2022-10-17T10:15:55;2.97;;;2.58;;
12218;SDS011;6172;42.646;23.344;2022-10-17T10:18:40;3.70;;;2.13;;
12218;SDS011;6172;42.646;23.344;2022-10-17T10:21:09;5.13;;;2.40;;
12218;SDS011;6172;42.646;23.344;2022-10-17T10:23:38;3.00;;;1.80;;
12218;SDS011;6172;42.646;23.344;2022-10-17T10:26:22;4.03;;;2.10;;
12218;SDS011;6172;42.646;23.344;2022-10-17T10:28:52;4.27;;;2.23;;
12218;SDS011;6172;42.646;23.344;2022-10-17T10:31:25;3.05;;;1.77;;
12218;SDS011;6172;42.646;23.344;2022-10-17T10:33:54;2.47;;;1.70;;
12218;SDS011;6172;42.646;23.344;2022-10-17T10:36:23;4.65;;;1.88;;
12218;SDS011;6172;42.646;23.344;2022-10-17T10:38:51;4.55;;;2.20;;
12218;SDS011;6172;42.646;23.344;2022-10-17T10:41:20;4.93;;;2.17;;
12218;SDS011;6172;42.646;23.344;2022-10-17T10:43:48;1.88;;;1.60;;
12218;SDS011;6172;42.646;23.344;2022-10-17T10:46:17;2.08;;;1.88;;
12218;SDS011;6172;42.646;23.344;2022-10-17T10:48:49;3.50;;;2.20;;
12218;SDS011;6172;42.646;23.344;2022-10-17T10:51:18;3.10;;;2.05;;
12218;SDS011;6172;42.646;23.344;2022-10-17T10:53:54;4.07;;;1.77;;
12218;SDS011;6172;42.646;23.344;2022-10-17T10:56:28;4.28;;;1.95;;
12218;SDS011;6172;42.646;23.344;2022-10-17T10:58:59;4.72;;;3.13;;
12218;SDS011;6172;42.646;23.344;2022-10-17T11:01:33;3.50;;;2.40;;
12218;SDS011;6172;42.646;23.344;2022-10-17T11:04:12;3.42;;;1.58;;
12218;SDS011;6172;42.646;23.344;2022-10-17T11:06:49;1.73;;;1.40;;
12218;SDS011;6172;42.646;23.344;2022-10-17T11:09:25;2.35;;;1.90;;
12218;SDS011;6172;42.646;23.344;2022-10-17T11:11:59;2.25;;;1.52;;
12218;SDS011;6172;42.646;23.344;2022-10-17T11:14:33;1.80;;;1.60;;
12218;SDS011;6172;42.646;23.344;2022-10-17T11:17:08;1.55;;;1.45;;
12218;SDS011;6172;42.646;23.344;2022-10-17T11:19:43;1.67;;;1.58;;
12218;SDS011;6172;42.646;23.344;2022-10-17T11:22:20;1.95;;;1.60;;
12218;SDS011;6172;42.646;23.344;2022-10-17T11:24:52;2.17;;;1.80;;
12218;SDS011;6172;42.646;23.344;2022-10-17T11:27:23;3.35;;;1.67;;
12218;SDS011;6172;42.646;23.344;2022-10-17T11:29:53;2.03;;;1.50;;
12218;SDS011;6172;42.646;23.344;2022-10-17T11:32:22;3.72;;;1.60;;
12218;SDS011;6172;42.646;23.344;2022-10-17T11:34:54;2.65;;;1.52;;
12218;SDS011;6172;42.646;23.344;2022-10-17T11:37:26;3.60;;;1.48;;
12218;SDS011;6172;42.646;23.344;2022-10-17T11:39:58;4.18;;;1.70;;
12218;SDS011;6172;42.646;23.344;2022-10-17T11:42:29;4.65;;;1.60;;
12218;SDS011;6172;42.646;23.344;2022-10-17T11:45:01;3.25;;;1.88;;
12218;SDS011;6172;42.646;23.344;2022-10-17T11:47:35;3.40;;;1.90;;
12218;SDS011;6172;42.646;23.344;2022-10-17T11:50:05;3.17;;;2.22;;
12218;SDS011;6172;42.646;23.344;2022-10-17T11:52:45;4.15;;;1.95;;
12218;SDS011;6172;42.646;23.344;2022-10-17T11:55:18;2.22;;;1.95;;
12218;SDS011;6172;42.646;23.344;2022-10-17T11:57:51;5.93;;;2.08;;
12218;SDS011;6172;42.646;23.344;2022-10-17T12:00:36;3.20;;;1.92;;
12218;SDS011;6172;42.646;23.344;2022-10-17T12:03:16;3.88;;;1.90;;
12218;SDS011;6172;42.646;23.344;2022-10-17T12:05:51;2.70;;;1.80;;
12218;SDS011;6172;42.646;23.344;2022-10-17T12:08:27;3.83;;;1.98;;
12218;SDS011;6172;42.646;23.344;2022-10-17T12:10:59;3.25;;;2.20;;
12218;SDS011;6172;42.646;23.344;2022-10-17T12:13:46;2.78;;;1.90;;
12218;SDS011;6172;42.646;23.344;2022-10-17T12:16:37;3.20;;;1.73;;
12218;SDS011;6172;42.646;23.344;2022-10-17T12:19:28;3.47;;;1.70;;
12218;SDS011;6172;42.646;23.344;2022-10-17T12:22:05;7.15;;;2.08;;
12218;SDS011;6172;42.646;23.344;2022-10-17T12:24:52;3.80;;;1.98;;
12218;SDS011;6172;42.646;23.344;2022-10-17T12:27:22;2.20;;;2.00;;
12218;SDS011;6172;42.646;23.344;2022-10-17T12:30:02;1.67;;;1.45;;
12218;SDS011;6172;42.646;23.344;2022-10-17T12:32:30;2.35;;;1.90;;
12218;SDS011;6172;42.646;23.344;2022-10-17T12:34:58;2.90;;;2.35;;
12218;SDS011;6172;42.646;23.344;2022-10-17T12:40:56;3.35;;;1.83;;
12218;SDS011;6172;42.646;23.344;2022-10-17T12:49:22;3.58;;;1.70;;
12218;SDS011;6172;42.646;23.344;2022-10-17T12:55:08;1.85;;;1.75;;
12218;SDS011;6172;42.646;23.344;2022-10-17T12:57:43;3.47;;;2.05;;
12218;SDS011;6172;42.646;23.344;2022-10-17T13:00:20;4.13;;;1.70;;
12218;SDS011;6172;42.646;23.344;2022-10-17T13:02:50;1.88;;;1.67;;
12218;SDS011;6172;42.646;23.344;2022-10-17T13:05:21;2.90;;;1.80;;
12218;SDS011;6172;42.646;23.344;2022-10-17T13:07:53;4.53;;;1.92;;
12218;SDS011;6172;42.646;23.344;2022-10-17T13:10:23;3.08;;;1.67;;
12218;SDS011;6172;42.646;23.344;2022-10-17T13:12:56;5.88;;;2.30;;
12218;SDS011;6172;42.646;23.344;2022-10-17T13:15:30;3.97;;;2.05;;
12218;SDS011;6172;42.646;23.344;2022-10-17T13:17:59;2.08;;;1.83;;
12218;SDS011;6172;42.646;23.344;2022-10-17T13:20:27;2.45;;;1.75;;
12218;SDS011;6172;42.646;23.344;2022-10-17T13:22:56;4.65;;;1.58;;
12218;SDS011;6172;42.646;23.344;2022-10-17T13:25:25;4.07;;;2.00;;
12218;SDS011;6172;42.646;23.344;2022-10-17T13:28:03;5.28;;;1.48;;
12218;SDS011;6172;42.646;23.344;2022-10-17T13:30:36;6.28;;;1.42;;
12218;SDS011;6172;42.646;23.344;2022-10-17T13:33:03;3.63;;;1.67;;
12218;SDS011;6172;42.646;23.344;2022-10-17T13:35:43;2.40;;;1.58;;
12218;SDS011;6172;42.646;23.344;2022-10-17T13:38:13;2.28;;;1.40;;
12218;SDS011;6172;42.646;23.344;2022-10-17T13:40:41;2.63;;;1.88;;
12218;SDS011;6172;42.646;23.344;2022-10-17T13:43:12;3.20;;;1.30;;
12218;SDS011;6172;42.646;23.344;2022-10-17T13:45:44;3.03;;;1.13;;
12218;SDS011;6172;42.646;23.344;2022-10-17T13:48:17;2.60;;;1.60;;
12218;SDS011;6172;42.646;23.344;2022-10-17T13:50:46;1.65;;;1.10;;
12218;SDS011;6172;42.646;23.344;2022-10-17T13:53:16;1.48;;;1.35;;
12218;SDS011;6172;42.646;23.344;2022-10-17T13:55:52;3.22;;;1.30;;
12218;SDS011;6172;42.646;23.344;2022-10-17T13:58:23;3.22;;;1.38;;
12218;SDS011;6172;42.646;23.344;2022-10-17T14:00:51;3.35;;;1.23;;
12218;SDS011;6172;42.646;23.344;2022-10-17T14:03:19;3.78;;;1.73;;
12218;SDS011;6172;42.646;23.344;2022-10-17T14:08:50;1.70;;;0.90;;
12218;SDS011;6172;42.646;23.344;2022-10-17T14:11:23;1.35;;;1.25;;
12218;SDS011;6172;42.646;23.344;2022-10-17T14:13:56;1.60;;;1.25;;
12218;SDS011;6172;42.646;23.344;2022-10-17T14:16:24;2.88;;;1.20;;
12218;SDS011;6172;42.646;23.344;2022-10-17T14:18:52;2.78;;;1.40;;
12218;SDS011;6172;42.646;23.344;2022-10-17T14:21:21;3.53;;;2.33;;
12218;SDS011;6172;42.646;23.344;2022-10-17T14:23:49;3.83;;;1.60;;
12218;SDS011;6172;42.646;23.344;2022-10-17T14:26:17;3.35;;;1.98;;
12218;SDS011;6172;42.646;23.344;2022-10-17T14:28:47;2.58;;;1.70;;
12218;SDS011;6172;42.646;23.344;2022-10-17T14:31:24;2.15;;;1.45;;
12218;SDS011;6172;42.646;23.344;2022-10-17T14:33:55;3.25;;;1.88;;
12218;SDS011;6172;42.646;23.344;2022-10-17T14:36:30;4.07;;;2.25;;
12218;SDS011;6172;42.646;23.344;2022-10-17T14:38:59;3.17;;;1.83;;
12218;SDS011;6172;42.646;23.344;2022-10-17T14:41:28;5.50;;;2.45;;
12218;SDS011;6172;42.646;23.344;2022-10-17T14:43:58;2.45;;;1.92;;
12218;SDS011;6172;42.646;23.344;2022-10-17T14:46:31;3.88;;;2.08;;
12218;SDS011;6172;42.646;23.344;2022-10-17T14:49:03;4.28;;;1.75;;
12218;SDS011;6172;42.646;23.344;2022-10-17T14:51:32;3.35;;;2.28;;
12218;SDS011;6172;42.646;23.344;2022-10-17T14:54:03;3.13;;;1.73;;
12218;SDS011;6172;42.646;23.344;2022-10-17T14:56:43;6.85;;;2.50;;
12218;SDS011;6172;42.646;23.344;2022-10-17T14:59:15;2.23;;;2.00;;
12218;SDS011;6172;42.646;23.344;2022-10-17T15:01:47;5.13;;;2.80;;
12218;SDS011;6172;42.646;23.344;2022-10-17T15:04:15;6.93;;;3.08;;
12218;SDS011;6172;42.646;23.344;2022-10-17T15:06:42;5.17;;;3.27;;
12218;SDS011;6172;42.646;23.344;2022-10-17T15:09:10;6.43;;;3.17;;
12218;SDS011;6172;42.646;23.344;2022-10-17T15:11:37;5.87;;;2.83;;
12218;SDS011;6172;42.646;23.344;2022-10-17T15:14:04;3.77;;;2.60;;
12218;SDS011;6172;42.646;23.344;2022-10-17T15:16:31;4.47;;;2.63;;
12218;SDS011;6172;42.646;23.344;2022-10-17T15:19:01;2.37;;;2.17;;
12218;SDS011;6172;42.646;23.344;2022-10-17T15:21:28;8.50;;;2.40;;
12218;SDS011;6172;42.646;23.344;2022-10-17T15:23:55;4.87;;;2.53;;
12218;SDS011;6172;42.646;23.344;2022-10-17T15:26:22;6.87;;;2.57;;